createdAt,value
2017-07-29T00:00:39.763Z,0
2017-07-29T00:01:41.171Z,0
2017-07-29T00:02:42.631Z,0
2017-07-29T00:03:44.101Z,0
2017-07-29T00:04:45.573Z,0
2017-07-29T00:05:47.079Z,0
2017-07-29T00:06:48.519Z,0
2017-07-29T00:07:49.977Z,0
2017-07-29T00:08:51.500Z,0
2017-07-29T00:09:53.047Z,0
2017-07-29T00:10:54.478Z,0
2017-07-29T00:11:55.947Z,0
2017-07-29T00:12:57.343Z,0
2017-07-29T00:13:58.774Z,0
2017-07-29T00:15:00.328Z,0
2017-07-29T00:16:02.310Z,0
2017-07-29T00:17:03.748Z,0
2017-07-29T00:18:05.191Z,0
2017-07-29T00:19:06.670Z,0
2017-07-29T00:20:08.139Z,0
2017-07-29T00:21:09.594Z,0
2017-07-29T00:22:11.065Z,0
2017-07-29T00:23:12.516Z,0
2017-07-29T00:24:13.982Z,0
2017-07-29T00:25:15.624Z,0
2017-07-29T00:26:17.051Z,0
2017-07-29T00:27:18.508Z,0
2017-07-29T00:28:19.970Z,0
2017-07-29T00:29:21.404Z,0
2017-07-29T00:30:22.865Z,0
2017-07-29T00:31:24.344Z,0
2017-07-29T00:32:25.797Z,0
2017-07-29T00:33:27.271Z,0
2017-07-29T00:34:28.729Z,0
2017-07-29T00:35:30.166Z,0
2017-07-29T00:36:31.635Z,0
2017-07-29T00:37:33.074Z,0
2017-07-29T00:38:34.496Z,0
2017-07-29T00:39:35.923Z,0
2017-07-29T00:40:37.356Z,0
2017-07-29T00:41:38.782Z,0
2017-07-29T00:42:40.209Z,0
2017-07-29T00:43:41.745Z,0
2017-07-29T00:44:43.174Z,0
2017-07-29T00:45:44.596Z,0
2017-07-29T00:46:46.010Z,0
2017-07-29T00:47:47.436Z,0
2017-07-29T00:48:48.869Z,0
2017-07-29T00:49:50.280Z,0
2017-07-29T00:50:51.701Z,0
2017-07-29T00:51:53.120Z,0
2017-07-29T00:52:54.552Z,0
2017-07-29T00:53:55.973Z,0
2017-07-29T00:54:57.458Z,0
2017-07-29T00:55:58.878Z,0
2017-07-29T00:57:00.308Z,0
2017-07-29T00:58:01.733Z,0
2017-07-29T00:59:03.144Z,0
2017-07-29T01:00:04.575Z,0
2017-07-29T01:01:06.071Z,0
2017-07-29T01:02:07.490Z,0
2017-07-29T01:03:08.916Z,0
2017-07-29T01:04:10.343Z,0
2017-07-29T01:05:11.773Z,0
2017-07-29T01:06:13.201Z,0
2017-07-29T01:07:14.615Z,0
2017-07-29T01:08:16.042Z,0
2017-07-29T01:09:17.472Z,0
2017-07-29T01:10:18.946Z,0
2017-07-29T01:11:20.381Z,0
2017-07-29T01:12:21.798Z,0
2017-07-29T01:13:23.218Z,0
2017-07-29T01:14:24.640Z,0
2017-07-29T01:15:26.072Z,0
2017-07-29T01:16:27.497Z,0
2017-07-29T01:17:28.950Z,0
2017-07-29T01:18:30.375Z,0
2017-07-29T01:19:31.808Z,0
2017-07-29T01:20:33.228Z,0
2017-07-29T01:21:34.649Z,0
2017-07-29T01:22:36.074Z,0
2017-07-29T01:23:37.492Z,0
2017-07-29T01:24:38.915Z,0
2017-07-29T01:25:40.349Z,0
2017-07-29T01:26:41.774Z,0
2017-07-29T01:27:43.197Z,0
2017-07-29T01:28:44.625Z,0
2017-07-29T01:29:46.034Z,0
2017-07-29T01:30:47.454Z,0
2017-07-29T01:31:48.873Z,0
2017-07-29T01:32:50.366Z,0
2017-07-29T01:33:51.791Z,0
2017-07-29T01:34:53.221Z,0
2017-07-29T01:35:54.720Z,0
2017-07-29T01:36:56.143Z,0
2017-07-29T01:37:57.595Z,0
2017-07-29T01:38:59.024Z,0
2017-07-29T01:40:00.451Z,0
2017-07-29T01:41:01.873Z,0
2017-07-29T01:42:03.301Z,0
2017-07-29T01:43:04.733Z,0
2017-07-29T01:44:06.147Z,0
2017-07-29T01:45:07.585Z,0
2017-07-29T01:46:09.029Z,0
2017-07-29T01:47:10.507Z,0
2017-07-29T01:48:11.932Z,0
2017-07-29T01:49:13.365Z,0
2017-07-29T01:50:14.815Z,0
2017-07-29T01:51:16.217Z,0
2017-07-29T01:52:17.667Z,0
2017-07-29T01:53:19.087Z,0
2017-07-29T01:54:20.516Z,0
2017-07-29T01:55:21.947Z,0
2017-07-29T01:56:23.396Z,0
2017-07-29T01:57:24.847Z,0
2017-07-29T01:58:26.283Z,0
2017-07-29T01:59:27.729Z,0
2017-07-29T02:00:29.171Z,0
2017-07-29T02:01:30.617Z,0
2017-07-29T02:02:32.053Z,0
2017-07-29T02:03:33.506Z,0
2017-07-29T02:04:34.964Z,0
2017-07-29T02:05:36.436Z,0
2017-07-29T02:06:37.885Z,0
2017-07-29T02:07:39.325Z,0
2017-07-29T02:08:40.765Z,0
2017-07-29T02:09:42.207Z,0
2017-07-29T02:10:43.643Z,0
2017-07-29T02:11:45.082Z,0
2017-07-29T02:12:46.567Z,0
2017-07-29T02:13:48.017Z,0
2017-07-29T02:14:49.369Z,0
2017-07-29T02:15:50.798Z,0
2017-07-29T02:16:52.222Z,0
2017-07-29T02:17:53.652Z,0
2017-07-29T02:18:55.098Z,0
2017-07-29T02:19:56.527Z,0
2017-07-29T02:20:57.959Z,0
2017-07-29T02:21:59.396Z,0
2017-07-29T02:23:00.823Z,0
2017-07-29T02:24:02.285Z,0
2017-07-29T02:25:03.709Z,0
2017-07-29T02:26:05.140Z,0
2017-07-29T02:27:06.559Z,0
2017-07-29T02:28:08.028Z,0
2017-07-29T02:29:09.466Z,0
2017-07-29T02:30:10.889Z,0
2017-07-29T02:31:12.317Z,0
2017-07-29T02:32:13.744Z,0
2017-07-29T02:33:15.159Z,0
2017-07-29T02:34:16.606Z,0
2017-07-29T02:35:18.032Z,0
2017-07-29T02:36:19.456Z,0
2017-07-29T02:37:20.888Z,0
2017-07-29T02:38:22.316Z,0
2017-07-29T02:39:23.731Z,0
2017-07-29T02:40:25.159Z,0
2017-07-29T02:41:26.596Z,0
2017-07-29T02:42:28.099Z,0
2017-07-29T02:43:29.514Z,0
2017-07-29T02:44:30.962Z,0
2017-07-29T02:45:32.434Z,0
2017-07-29T02:46:33.929Z,0
2017-07-29T02:47:35.408Z,0
2017-07-29T02:48:36.867Z,0
2017-07-29T02:49:38.301Z,0
2017-07-29T02:50:39.737Z,0
2017-07-29T02:51:41.175Z,0
2017-07-29T02:52:42.607Z,0
2017-07-29T02:53:44.052Z,0
2017-07-29T02:54:45.501Z,0
2017-07-29T02:55:46.936Z,0
2017-07-29T02:56:48.391Z,0
2017-07-29T02:57:49.829Z,0
2017-07-29T02:58:51.274Z,0
2017-07-29T02:59:52.720Z,0
2017-07-29T03:00:54.162Z,0
2017-07-29T03:01:55.624Z,0
2017-07-29T03:02:57.076Z,0
2017-07-29T03:03:58.525Z,0
2017-07-29T03:04:59.959Z,0
2017-07-29T03:06:01.390Z,0
2017-07-29T03:07:02.838Z,0
2017-07-29T03:08:04.284Z,0
2017-07-29T03:09:05.711Z,0
2017-07-29T03:10:07.138Z,0
2017-07-29T03:11:08.591Z,0
2017-07-29T03:12:10.053Z,0
2017-07-29T03:13:11.476Z,0
2017-07-29T03:14:12.954Z,0
2017-07-29T03:15:14.371Z,4
2017-07-29T03:16:15.812Z,4
2017-07-29T03:17:17.227Z,4
2017-07-29T03:18:18.657Z,4
2017-07-29T03:19:20.127Z,0
2017-07-29T03:20:21.543Z,4
2017-07-29T03:21:22.988Z,4
2017-07-29T03:22:24.402Z,4
2017-07-29T03:23:25.833Z,4
2017-07-29T03:24:27.253Z,4
2017-07-29T03:25:28.665Z,4
2017-07-29T03:26:30.092Z,4
2017-07-29T03:27:31.512Z,8
2017-07-29T03:28:32.941Z,8
2017-07-29T03:29:34.462Z,4
2017-07-29T03:30:35.892Z,8
2017-07-29T03:31:37.311Z,8
2017-07-29T03:32:38.752Z,12
2017-07-29T03:33:40.186Z,12
2017-07-29T03:34:41.624Z,16
2017-07-29T03:35:43.058Z,12
2017-07-29T03:36:44.482Z,12
2017-07-29T03:37:45.918Z,12
2017-07-29T03:38:47.371Z,12
2017-07-29T03:39:48.793Z,12
2017-07-29T03:40:50.223Z,16
2017-07-29T03:41:51.649Z,16
2017-07-29T03:42:53.078Z,16
2017-07-29T03:43:54.524Z,20
2017-07-29T03:44:55.956Z,20
2017-07-29T03:45:57.401Z,24
2017-07-29T03:46:58.838Z,24
2017-07-29T03:48:00.283Z,24
2017-07-29T03:49:01.740Z,24
2017-07-29T03:50:03.205Z,24
2017-07-29T03:51:04.587Z,24
2017-07-29T03:52:06.106Z,28
2017-07-29T03:53:07.570Z,24
2017-07-29T03:54:09.016Z,24
2017-07-29T03:55:10.444Z,28
2017-07-29T03:56:11.889Z,32
2017-07-29T03:57:13.339Z,40
2017-07-29T03:58:14.776Z,40
2017-07-29T03:59:16.201Z,40
2017-07-29T04:00:17.646Z,44
2017-07-29T04:01:19.082Z,44
2017-07-29T04:02:20.502Z,40
2017-07-29T04:03:21.925Z,40
2017-07-29T04:04:23.353Z,40
2017-07-29T04:05:24.773Z,40
2017-07-29T04:06:26.192Z,44
2017-07-29T04:07:27.628Z,48
2017-07-29T04:08:29.053Z,48
2017-07-29T04:09:30.479Z,52
2017-07-29T04:10:31.919Z,56
2017-07-29T04:11:33.358Z,64
2017-07-29T04:12:34.791Z,68
2017-07-29T04:13:36.205Z,76
2017-07-29T04:14:37.651Z,88
2017-07-29T04:15:39.096Z,100
2017-07-29T04:16:40.537Z,108
2017-07-29T04:17:41.958Z,124
2017-07-29T04:18:43.380Z,136
2017-07-29T04:19:44.798Z,152
2017-07-29T04:20:46.223Z,176
2017-07-29T04:21:47.657Z,200
2017-07-29T04:22:49.082Z,204
2017-07-29T04:23:50.519Z,208
2017-07-29T04:24:51.932Z,196
2017-07-29T04:25:53.368Z,212
2017-07-29T04:26:54.790Z,232
2017-07-29T04:27:56.221Z,244
2017-07-29T04:28:57.645Z,272
2017-07-29T04:29:59.090Z,284
2017-07-29T04:31:00.533Z,304
2017-07-29T04:32:01.970Z,308
2017-07-29T04:33:03.410Z,328
2017-07-29T04:34:04.841Z,356
2017-07-29T04:35:06.283Z,392
2017-07-29T04:36:07.713Z,400
2017-07-29T04:37:09.150Z,408
2017-07-29T04:38:10.581Z,352
2017-07-29T04:39:12.010Z,328
2017-07-29T04:40:13.461Z,316
2017-07-29T04:41:14.890Z,324
2017-07-29T04:42:16.327Z,320
2017-07-29T04:43:17.756Z,288
2017-07-29T04:44:19.193Z,260
2017-07-29T04:45:20.630Z,240
2017-07-29T04:46:22.054Z,228
2017-07-29T04:47:23.525Z,224
2017-07-29T04:48:24.932Z,220
2017-07-29T04:49:26.356Z,232
2017-07-29T04:50:27.782Z,268
2017-07-29T04:51:29.212Z,316
2017-07-29T04:52:30.634Z,348
2017-07-29T04:53:32.070Z,344
2017-07-29T04:54:33.505Z,344
2017-07-29T04:55:34.929Z,356
2017-07-29T04:56:36.382Z,372
2017-07-29T04:57:38.043Z,400
2017-07-29T04:58:39.491Z,456
2017-07-29T04:59:40.938Z,468
2017-07-29T05:00:42.373Z,468
2017-07-29T05:01:43.817Z,472
2017-07-29T05:02:45.309Z,432
2017-07-29T05:03:46.727Z,404
2017-07-29T05:04:48.151Z,388
2017-07-29T05:05:49.583Z,392
2017-07-29T05:06:51.449Z,400
2017-07-29T05:07:52.862Z,392
2017-07-29T05:08:54.324Z,392
2017-07-29T05:09:55.817Z,420
2017-07-29T05:10:57.286Z,452
2017-07-29T05:11:58.796Z,492
2017-07-29T05:13:00.385Z,532
2017-07-29T05:14:01.969Z,548
2017-07-29T05:15:03.448Z,544
2017-07-29T05:16:05.110Z,564
2017-07-29T05:17:06.589Z,588
2017-07-29T05:18:08.056Z,532
2017-07-29T05:19:09.674Z,516
2017-07-29T05:20:11.079Z,504
2017-07-29T05:21:12.574Z,488
2017-07-29T05:22:14.168Z,496
2017-07-29T05:23:15.870Z,496
2017-07-29T05:24:17.393Z,500
2017-07-29T05:25:18.953Z,528
2017-07-29T05:26:20.464Z,560
2017-07-29T05:27:21.978Z,540
2017-07-29T05:28:23.519Z,528
2017-07-29T05:29:25.340Z,520
2017-07-29T05:30:26.822Z,488
2017-07-29T05:31:28.424Z,456
2017-07-29T05:32:29.963Z,420
2017-07-29T05:33:31.418Z,404
2017-07-29T05:34:32.908Z,428
2017-07-29T05:35:34.395Z,488
2017-07-29T05:36:35.942Z,568
2017-07-29T05:37:37.462Z,668
2017-07-29T05:38:38.959Z,676
2017-07-29T05:39:40.504Z,788
2017-07-29T05:40:42.014Z,796
2017-07-29T05:41:43.482Z,984
2017-07-29T05:42:44.974Z,1188
2017-07-29T05:43:46.488Z,1188
2017-07-29T05:44:48.067Z,1232
2017-07-29T05:45:49.636Z,1260
2017-07-29T05:46:51.088Z,1296
2017-07-29T05:47:52.553Z,1272
2017-07-29T05:48:54.017Z,1248
2017-07-29T05:49:55.468Z,1236
2017-07-29T05:50:56.915Z,1228
2017-07-29T05:51:58.358Z,1140
2017-07-29T05:52:59.826Z,992
2017-07-29T05:54:01.259Z,932
2017-07-29T05:55:02.743Z,884
2017-07-29T05:56:04.182Z,956
2017-07-29T05:57:06.988Z,984
2017-07-29T05:58:08.480Z,968
2017-07-29T05:59:09.912Z,1000
2017-07-29T06:00:11.374Z,1120
2017-07-29T06:01:12.823Z,1328
2017-07-29T06:02:14.285Z,1396
2017-07-29T06:03:15.712Z,1332
2017-07-29T06:04:17.151Z,1348
2017-07-29T06:05:18.614Z,1372
2017-07-29T06:06:20.063Z,1392
2017-07-29T06:07:21.502Z,1504
2017-07-29T06:08:22.929Z,1532
2017-07-29T06:09:24.681Z,1432
2017-07-29T06:10:26.520Z,1376
2017-07-29T06:11:29.025Z,1456
2017-07-29T06:12:31.292Z,1632
2017-07-29T06:13:32.736Z,1684
2017-07-29T06:14:34.178Z,2020
2017-07-29T06:15:35.617Z,2480
2017-07-29T06:16:37.076Z,2536
2017-07-29T06:17:38.552Z,2240
2017-07-29T06:18:39.995Z,2252
2017-07-29T06:19:41.450Z,2416
2017-07-29T06:20:42.895Z,2600
2017-07-29T06:21:44.335Z,2508
2017-07-29T06:22:47.265Z,2560
2017-07-29T06:23:50.375Z,2688
2017-07-29T06:24:51.992Z,3232
2017-07-29T06:25:53.484Z,4604
2017-07-29T06:26:54.970Z,5308
2017-07-29T06:27:56.556Z,5564
2017-07-29T06:28:57.981Z,4928
2017-07-29T06:29:59.416Z,4168
2017-07-29T06:31:00.896Z,3948
2017-07-29T06:32:02.370Z,4040
2017-07-29T06:33:03.832Z,4216
2017-07-29T06:34:05.412Z,4240
2017-07-29T06:35:06.888Z,4508
2017-07-29T06:36:08.337Z,4952
2017-07-29T06:37:09.812Z,5320
2017-07-29T06:38:11.242Z,5324
2017-07-29T06:39:12.702Z,5204
2017-07-29T06:40:14.140Z,5448
2017-07-29T06:41:15.593Z,5784
2017-07-29T06:42:17.056Z,5424
2017-07-29T06:43:18.505Z,5336
2017-07-29T06:44:19.939Z,5832
2017-07-29T06:45:21.379Z,6900
2017-07-29T06:46:22.813Z,2004
2017-07-29T06:47:24.279Z,1540
2017-07-29T06:48:25.835Z,1184
2017-07-29T06:49:27.280Z,992
2017-07-29T06:50:28.779Z,1032
2017-07-29T06:51:30.254Z,1104
2017-07-29T06:52:31.736Z,1128
2017-07-29T06:53:33.201Z,1028
2017-07-29T06:54:34.762Z,872
2017-07-29T06:55:36.215Z,656
2017-07-29T06:56:37.716Z,572
2017-07-29T06:57:39.142Z,584
2017-07-29T06:58:40.677Z,692
2017-07-29T06:59:42.115Z,848
2017-07-29T07:00:43.558Z,876
2017-07-29T07:01:45.017Z,872
2017-07-29T07:02:46.473Z,880
2017-07-29T07:03:47.889Z,916
2017-07-29T07:04:49.320Z,972
2017-07-29T07:05:50.750Z,1020
2017-07-29T07:06:52.221Z,1068
2017-07-29T07:07:53.641Z,1188
2017-07-29T07:08:55.102Z,1204
2017-07-29T07:09:56.634Z,1140
2017-07-29T07:10:58.147Z,1016
2017-07-29T07:11:59.603Z,920
2017-07-29T07:13:01.072Z,844
2017-07-29T07:14:02.592Z,840
2017-07-29T07:15:04.142Z,772
2017-07-29T07:16:05.656Z,708
2017-07-29T07:17:07.166Z,688
2017-07-29T07:18:08.670Z,688
2017-07-29T07:19:10.264Z,648
2017-07-29T07:20:11.800Z,668
2017-07-29T07:21:13.318Z,752
2017-07-29T07:22:14.847Z,908
2017-07-29T07:23:16.374Z,1192
2017-07-29T07:24:17.908Z,1252
2017-07-29T07:25:19.435Z,1236
2017-07-29T07:26:21.070Z,1328
2017-07-29T07:27:22.584Z,1512
2017-07-29T07:28:24.295Z,1672
2017-07-29T07:29:25.662Z,1696
2017-07-29T07:30:27.168Z,1740
2017-07-29T07:31:28.673Z,2076
2017-07-29T07:32:30.184Z,1852
2017-07-29T07:33:31.845Z,1824
2017-07-29T07:34:33.360Z,1832
2017-07-29T07:35:34.862Z,1728
2017-07-29T07:36:36.389Z,1684
2017-07-29T07:37:37.747Z,1296
2017-07-29T07:38:39.401Z,1488
2017-07-29T07:39:40.912Z,1732
2017-07-29T07:40:42.426Z,1784
2017-07-29T07:41:44.120Z,1808
2017-07-29T07:42:45.634Z,1844
2017-07-29T07:43:47.149Z,1936
2017-07-29T07:44:48.529Z,2104
2017-07-29T07:45:50.147Z,1968
2017-07-29T07:46:51.697Z,1996
2017-07-29T07:47:53.211Z,2012
2017-07-29T07:48:54.719Z,2084
2017-07-29T07:49:56.222Z,2128
2017-07-29T07:50:57.745Z,2108
2017-07-29T07:51:59.271Z,2036
2017-07-29T07:53:00.941Z,1900
2017-07-29T07:54:02.451Z,1440
2017-07-29T07:55:03.958Z,1904
2017-07-29T07:56:05.481Z,1748
2017-07-29T07:57:06.988Z,1656
2017-07-29T07:58:08.486Z,1696
2017-07-29T07:59:10.037Z,1752
2017-07-29T08:00:11.727Z,1928
2017-07-29T08:01:13.263Z,1820
2017-07-29T08:02:14.802Z,1592
2017-07-29T08:03:16.331Z,1340
2017-07-29T08:04:17.840Z,1224
2017-07-29T08:05:19.280Z,1224
2017-07-29T08:06:20.810Z,1316
2017-07-29T08:07:22.356Z,1416
2017-07-29T08:08:23.876Z,1360
2017-07-29T08:09:25.330Z,1252
2017-07-29T08:10:26.782Z,1316
2017-07-29T08:11:28.220Z,1252
2017-07-29T08:12:29.681Z,1044
2017-07-29T08:13:31.159Z,1236
2017-07-29T08:14:32.605Z,1248
2017-07-29T08:15:34.050Z,1220
2017-07-29T08:16:35.511Z,1244
2017-07-29T08:17:36.956Z,1148
2017-07-29T08:18:38.396Z,1532
2017-07-29T08:19:39.855Z,1656
2017-07-29T08:20:41.289Z,1408
2017-07-29T08:21:42.853Z,1448
2017-07-29T08:22:44.308Z,1300
2017-07-29T08:23:45.739Z,1064
2017-07-29T08:24:47.261Z,976
2017-07-29T08:25:48.698Z,1212
2017-07-29T08:26:50.144Z,1152
2017-07-29T08:27:51.570Z,1096
2017-07-29T08:28:52.995Z,956
2017-07-29T08:29:54.431Z,956
2017-07-29T08:30:55.883Z,1052
2017-07-29T08:31:57.311Z,1168
2017-07-29T08:32:58.752Z,1056
2017-07-29T08:34:00.299Z,1032
2017-07-29T08:35:01.768Z,1008
2017-07-29T08:36:03.203Z,936
2017-07-29T08:37:04.706Z,968
2017-07-29T08:38:06.131Z,1028
2017-07-29T08:39:07.603Z,932
2017-07-29T08:40:09.128Z,868
2017-07-29T08:41:10.591Z,868
2017-07-29T08:42:12.031Z,940
2017-07-29T08:43:13.465Z,1080
2017-07-29T08:44:14.900Z,1140
2017-07-29T08:45:16.349Z,1256
2017-07-29T08:46:17.794Z,1240
2017-07-29T08:47:19.227Z,1200
2017-07-29T08:48:20.704Z,1140
2017-07-29T08:49:22.166Z,1056
2017-07-29T08:50:23.601Z,928
2017-07-29T08:51:25.183Z,980
2017-07-29T08:52:26.619Z,1200
2017-07-29T08:53:28.051Z,1204
2017-07-29T08:54:29.494Z,1276
2017-07-29T08:55:30.942Z,1252
2017-07-29T08:56:32.397Z,1120
2017-07-29T08:57:33.870Z,1236
2017-07-29T08:58:35.339Z,1404
2017-07-29T08:59:36.788Z,1460
2017-07-29T09:00:38.236Z,1404
2017-07-29T09:01:39.701Z,1188
2017-07-29T09:02:41.146Z,1052
2017-07-29T09:03:42.567Z,1000
2017-07-29T09:04:44.122Z,932
2017-07-29T09:05:45.625Z,856
2017-07-29T09:06:47.043Z,836
2017-07-29T09:07:48.486Z,772
2017-07-29T09:08:49.971Z,808
2017-07-29T09:09:51.464Z,792
2017-07-29T09:10:52.935Z,752
2017-07-29T09:11:54.405Z,804
2017-07-29T09:12:55.860Z,844
2017-07-29T09:13:57.301Z,796
2017-07-29T09:14:58.741Z,824
2017-07-29T09:16:00.190Z,820
2017-07-29T09:17:01.736Z,808
2017-07-29T09:18:03.205Z,820
2017-07-29T09:19:04.692Z,832
2017-07-29T09:20:06.130Z,756
2017-07-29T09:21:07.570Z,792
2017-07-29T09:22:09.090Z,784
2017-07-29T09:23:10.536Z,744
2017-07-29T09:24:11.954Z,684
2017-07-29T09:25:13.383Z,632
2017-07-29T09:26:14.868Z,560
2017-07-29T09:27:16.310Z,608
2017-07-29T09:28:17.749Z,664
2017-07-29T09:29:19.193Z,780
2017-07-29T09:30:20.629Z,908
2017-07-29T09:31:22.080Z,1160
2017-07-29T09:32:23.518Z,1568
2017-07-29T09:33:24.969Z,1440
2017-07-29T09:34:26.558Z,1432
2017-07-29T09:35:28.298Z,1712
2017-07-29T09:36:29.773Z,1760
2017-07-29T09:37:31.226Z,1516
2017-07-29T09:38:32.929Z,1364
2017-07-29T09:39:34.381Z,1264
2017-07-29T09:40:35.832Z,1324
2017-07-29T09:41:37.294Z,1384
2017-07-29T09:42:38.729Z,1392
2017-07-29T09:43:40.237Z,1328
2017-07-29T09:44:41.713Z,1248
2017-07-29T09:45:43.145Z,1116
2017-07-29T09:46:44.617Z,1100
2017-07-29T09:47:46.053Z,1112
2017-07-29T09:48:47.496Z,1020
2017-07-29T09:49:48.961Z,1068
2017-07-29T09:50:50.396Z,1312
2017-07-29T09:51:51.907Z,1352
2017-07-29T09:52:53.335Z,1236
2017-07-29T09:53:54.782Z,1360
2017-07-29T09:54:56.223Z,1372
2017-07-29T09:55:57.706Z,1488
2017-07-29T09:56:59.144Z,1392
2017-07-29T09:58:00.594Z,1576
2017-07-29T09:59:02.043Z,1440
2017-07-29T10:00:03.494Z,1596
2017-07-29T10:01:04.942Z,1656
2017-07-29T10:02:06.378Z,1460
2017-07-29T10:03:07.827Z,1424
2017-07-29T10:04:09.363Z,1504
2017-07-29T10:05:10.799Z,1448
2017-07-29T10:06:12.290Z,1532
2017-07-29T10:07:13.791Z,1568
2017-07-29T10:08:15.245Z,1580
2017-07-29T10:09:16.688Z,1636
2017-07-29T10:10:18.197Z,1656
2017-07-29T10:11:19.706Z,1568
2017-07-29T10:12:21.157Z,1448
2017-07-29T10:13:22.591Z,1308
2017-07-29T10:14:24.050Z,1324
2017-07-29T10:15:25.553Z,1252
2017-07-29T10:16:27.001Z,1260
2017-07-29T10:17:28.433Z,1328
2017-07-29T10:18:29.869Z,1364
2017-07-29T10:19:31.332Z,1284
2017-07-29T10:20:32.773Z,1200
2017-07-29T10:21:34.234Z,1192
2017-07-29T10:22:35.709Z,1152
2017-07-29T10:23:37.143Z,1388
2017-07-29T10:24:38.599Z,1392
2017-07-29T10:25:40.053Z,1312
2017-07-29T10:26:41.508Z,1088
2017-07-29T10:27:42.971Z,1096
2017-07-29T10:28:44.431Z,908
2017-07-29T10:29:45.878Z,1044
2017-07-29T10:30:47.346Z,1132
2017-07-29T10:31:48.860Z,1064
2017-07-29T10:32:50.289Z,1096
2017-07-29T10:33:51.796Z,1240
2017-07-29T10:34:53.242Z,1172
2017-07-29T10:35:54.726Z,1272
2017-07-29T10:36:56.252Z,1432
2017-07-29T10:37:57.732Z,1520
2017-07-29T10:38:59.260Z,1544
2017-07-29T10:40:00.729Z,1432
2017-07-29T10:41:02.266Z,1344
2017-07-29T10:42:03.747Z,1344
2017-07-29T10:43:05.223Z,1608
2017-07-29T10:44:06.698Z,1516
2017-07-29T10:45:08.207Z,1632
2017-07-29T10:46:09.716Z,1828
2017-07-29T10:47:11.211Z,1576
2017-07-29T10:48:12.656Z,1544
2017-07-29T10:49:14.113Z,1424
2017-07-29T10:50:15.588Z,1308
2017-07-29T10:51:17.268Z,1120
2017-07-29T10:52:18.876Z,1000
2017-07-29T10:53:20.352Z,912
2017-07-29T10:54:22.557Z,844
2017-07-29T10:55:24.818Z,684
2017-07-29T10:56:26.296Z,580
2017-07-29T10:57:27.753Z,616
2017-07-29T10:58:29.230Z,692
2017-07-29T10:59:30.706Z,1020
2017-07-29T11:00:32.236Z,924
2017-07-29T11:01:33.668Z,952
2017-07-29T11:02:35.130Z,1036
2017-07-29T11:03:36.595Z,1004
2017-07-29T11:04:38.036Z,1176
2017-07-29T11:05:39.496Z,1228
2017-07-29T11:06:40.946Z,1328
2017-07-29T11:07:42.399Z,1340
2017-07-29T11:08:43.839Z,1432
2017-07-29T11:09:45.281Z,1472
2017-07-29T11:10:46.734Z,1592
2017-07-29T11:11:48.209Z,1536
2017-07-29T11:12:49.671Z,1448
2017-07-29T11:13:51.126Z,1340
2017-07-29T11:14:52.573Z,1428
2017-07-29T11:15:54.018Z,1384
2017-07-29T11:16:55.483Z,1508
2017-07-29T11:17:56.948Z,1328
2017-07-29T11:18:58.411Z,1288
2017-07-29T11:19:59.888Z,1116
2017-07-29T11:21:01.341Z,1024
2017-07-29T11:22:04.692Z,980
2017-07-29T11:23:07.549Z,952
2017-07-29T11:24:09.003Z,984
2017-07-29T11:25:10.474Z,1192
2017-07-29T11:26:11.968Z,1392
2017-07-29T11:27:13.435Z,1424
2017-07-29T11:28:14.920Z,1364
2017-07-29T11:29:16.386Z,1312
2017-07-29T11:30:17.837Z,1340
2017-07-29T11:31:19.297Z,1456
2017-07-29T11:32:20.775Z,1400
2017-07-29T11:33:22.315Z,1408
2017-07-29T11:34:23.789Z,1372
2017-07-29T11:35:25.217Z,1208
2017-07-29T11:36:26.672Z,1144
2017-07-29T11:37:28.103Z,1208
2017-07-29T11:38:29.561Z,1232
2017-07-29T11:39:31.140Z,1180
2017-07-29T11:40:32.588Z,1112
2017-07-29T11:41:34.068Z,1136
2017-07-29T11:42:35.513Z,1132
2017-07-29T11:43:36.962Z,1240
2017-07-29T11:44:38.409Z,1464
2017-07-29T11:45:39.862Z,1480
2017-07-29T11:46:41.319Z,1420
2017-07-29T11:47:42.753Z,1432
2017-07-29T11:48:44.192Z,1464
2017-07-29T11:49:45.629Z,1572
2017-07-29T11:50:47.075Z,1464
2017-07-29T11:51:48.505Z,1604
2017-07-29T11:52:49.945Z,1608
2017-07-29T11:53:51.406Z,1492
2017-07-29T11:54:52.845Z,1452
2017-07-29T11:55:54.276Z,1440
2017-07-29T11:56:55.714Z,1316
2017-07-29T11:57:57.149Z,1448
2017-07-29T11:58:58.582Z,1384
2017-07-29T12:00:00.028Z,1276
2017-07-29T12:01:01.446Z,1264
2017-07-29T12:02:02.872Z,1344
2017-07-29T12:03:04.302Z,1264
2017-07-29T12:04:05.752Z,1344
2017-07-29T12:05:07.177Z,1368
2017-07-29T12:06:08.610Z,1448
2017-07-29T12:07:10.078Z,1432
2017-07-29T12:08:11.525Z,1428
2017-07-29T12:09:13.010Z,1400
2017-07-29T12:10:14.441Z,1332
2017-07-29T12:11:15.873Z,1208
2017-07-29T12:12:17.314Z,1196
2017-07-29T12:13:18.736Z,1268
2017-07-29T12:14:20.160Z,1240
2017-07-29T12:15:21.598Z,1312
2017-07-29T12:16:23.040Z,1348
2017-07-29T12:17:24.466Z,1308
2017-07-29T12:18:25.906Z,1464
2017-07-29T12:19:27.447Z,1200
2017-07-29T12:20:28.875Z,1228
2017-07-29T12:21:30.306Z,1176
2017-07-29T12:22:31.736Z,1056
2017-07-29T12:23:33.186Z,1120
2017-07-29T12:24:34.685Z,1144
2017-07-29T12:25:36.132Z,1176
2017-07-29T12:26:37.570Z,1472
2017-07-29T12:27:39.009Z,1492
2017-07-29T12:28:40.445Z,1404
2017-07-29T12:29:41.894Z,1272
2017-07-29T12:30:43.328Z,1236
2017-07-29T12:31:44.768Z,1048
2017-07-29T12:32:46.217Z,1008
2017-07-29T12:33:47.662Z,1076
2017-07-29T12:34:49.111Z,896
2017-07-29T12:35:50.539Z,964
2017-07-29T12:36:51.989Z,1028
2017-07-29T12:37:53.427Z,1036
2017-07-29T12:38:54.858Z,812
2017-07-29T12:39:56.294Z,740
2017-07-29T12:40:57.728Z,856
2017-07-29T12:41:59.162Z,772
2017-07-29T12:43:00.596Z,768
2017-07-29T12:44:02.026Z,800
2017-07-29T12:45:03.458Z,844
2017-07-29T12:46:04.894Z,836
2017-07-29T12:47:06.320Z,856
2017-07-29T12:48:07.755Z,836
2017-07-29T12:49:09.178Z,860
2017-07-29T12:50:10.605Z,848
2017-07-29T12:51:12.055Z,820
2017-07-29T12:52:13.550Z,844
2017-07-29T12:53:15.061Z,784
2017-07-29T12:54:16.496Z,832
2017-07-29T12:55:17.988Z,844
2017-07-29T12:56:19.450Z,840
2017-07-29T12:57:20.913Z,920
2017-07-29T12:58:22.348Z,832
2017-07-29T12:59:23.782Z,864
2017-07-29T13:00:25.213Z,836
2017-07-29T13:01:26.648Z,896
2017-07-29T13:02:28.089Z,808
2017-07-29T13:03:29.524Z,768
2017-07-29T13:04:30.979Z,816
2017-07-29T13:05:32.468Z,960
2017-07-29T13:06:33.931Z,896
2017-07-29T13:07:35.408Z,884
2017-07-29T13:08:36.842Z,964
2017-07-29T13:09:38.353Z,944
2017-07-29T13:10:39.804Z,832
2017-07-29T13:11:41.241Z,764
2017-07-29T13:12:42.703Z,816
2017-07-29T13:13:44.158Z,812
2017-07-29T13:14:45.600Z,768
2017-07-29T13:15:47.059Z,748
2017-07-29T13:16:48.750Z,724
2017-07-29T13:17:50.268Z,676
2017-07-29T13:18:51.670Z,748
2017-07-29T13:19:53.161Z,760
2017-07-29T13:20:54.601Z,804
2017-07-29T13:21:56.058Z,780
2017-07-29T13:22:57.519Z,732
2017-07-29T13:23:58.983Z,972
2017-07-29T13:25:00.464Z,828
2017-07-29T13:26:01.938Z,788
2017-07-29T13:27:03.382Z,808
2017-07-29T13:28:04.827Z,796
2017-07-29T13:29:06.272Z,824
2017-07-29T13:30:07.717Z,804
2017-07-29T13:31:09.162Z,836
2017-07-29T13:32:10.600Z,800
2017-07-29T13:33:12.039Z,768
2017-07-29T13:34:13.474Z,836
2017-07-29T13:35:14.926Z,876
2017-07-29T13:36:16.370Z,852
2017-07-29T13:37:17.804Z,852
2017-07-29T13:38:19.238Z,832
2017-07-29T13:39:20.680Z,836
2017-07-29T13:40:22.147Z,828
2017-07-29T13:41:23.584Z,772
2017-07-29T13:42:25.036Z,724
2017-07-29T13:43:26.482Z,736
2017-07-29T13:44:27.911Z,772
2017-07-29T13:45:29.357Z,704
2017-07-29T13:46:30.810Z,700
2017-07-29T13:47:32.247Z,724
2017-07-29T13:48:33.693Z,732
2017-07-29T13:49:35.120Z,768
2017-07-29T13:50:36.600Z,736
2017-07-29T13:51:38.037Z,700
2017-07-29T13:52:39.500Z,720
2017-07-29T13:53:40.941Z,704
2017-07-29T13:54:42.365Z,644
2017-07-29T13:55:43.847Z,616
2017-07-29T13:56:45.942Z,792
2017-07-29T13:57:47.392Z,792
2017-07-29T13:58:48.847Z,968
2017-07-29T13:59:50.293Z,1012
2017-07-29T14:00:51.733Z,940
2017-07-29T14:01:53.212Z,1032
2017-07-29T14:02:54.656Z,1180
2017-07-29T14:03:56.090Z,1208
2017-07-29T14:04:57.522Z,1132
2017-07-29T14:05:58.986Z,1200
2017-07-29T14:07:00.445Z,1052
2017-07-29T14:08:01.905Z,1364
2017-07-29T14:09:03.349Z,1280
2017-07-29T14:10:04.791Z,1476
2017-07-29T14:11:06.238Z,1368